Capitol Reef, Utah
Current Conditions -  °F | °C
As of 12:53 PM on Sunday 23 Nov 2014 (Local Time) from KBCE Reporting Station
Clear Clear  
Wind Chill: 19°   Ceiling: Unl
Heat Index: 30°   Visibility: 10mi
Dew Point: 14°   Wind: 16mph
Humidity: 51%   Direction: 310°NW
Pressure: 30.16"   Gusts: 25mph
Location:  38.2517°N, 111.706°W
Report Text: KBCE 231953Z AUTO 31014G22KT 10SM CLR M01/M10 A3016 RMK AO2 SLP189 T10111100
Loading
Personal Weather Stations






























Interactive Weather Map New forecast layout! Learn more

10-Day Weather Forecast

Advertisements
Track Severe Weather on mobile